»·PEaware :: N3CS KSNA-KPSP

N3CS :: KSNA-KPSP

FLIGHT INFORMATION

Flight Status: Arrived
Operator: Privately registered:
United States
More flights under this callsign
Pilot: Ryan C. (15122)
Aircraft: CESSNA 208 CARAVAN
(C208)
More flights by this aircraft type
Origin: KSNA John Wayne-Orange Co
United States
Destination: KPSP Palm Springs Intl
United States
More flights between these airports :: More routes between these airports
Route: MUSEL8 TRM
File this flight plan on PilotEdge
Remarks:
Altitude:
(Current/Filed)
11,000ft
Speed:
(Current/Filed)
160kts
Departed: 12-Sep-22 12:07 PM
Arrived: 12-Sep-22 12:44 PM
Distance/Time
Traveled:
68nm/0:37
Distance/Time
To Go:
Arrived

Flight Plot

Page will automatically refresh every two minutes.


Map Options




Map Legend


Flown Route
Filed Route
Departure Airport
Arrival Airport
Navaid (VOR, NDB)
Fix

Horizontal Profiles

Position Reports

Time Latitude Longitude Heading Altitude Ground
Speed
12-Sep-22 11:50 33.676240 -117.870958 3 49ft 0kts
12-Sep-22 11:51 33.676240 -117.870958 3 49ft 0kts
12-Sep-22 11:52 33.676240 -117.870958 3 49ft 0kts
12-Sep-22 11:52 33.676240 -117.870958 3 49ft 0kts
12-Sep-22 11:54 33.676240 -117.870958 3 49ft 0kts
12-Sep-22 11:55 33.676240 -117.870958 3 49ft 0kts
12-Sep-22 11:56 33.676240 -117.870958 3 49ft 0kts
12-Sep-22 11:57 33.676240 -117.870958 3 49ft 0kts
12-Sep-22 11:57 33.676240 -117.870958 3 49ft 0kts
12-Sep-22 11:58 33.676240 -117.870958 3 49ft 0kts
12-Sep-22 12:00 33.676240 -117.870958 3 49ft 0kts
12-Sep-22 12:01 33.676171 -117.870231 99 50ft 4kts
12-Sep-22 12:01 33.678775 -117.868395 28 50ft 17kts
12-Sep-22 12:02 33.681225 -117.866508 110 49ft 0kts
12-Sep-22 12:03 33.681225 -117.866508 110 49ft 0kts
12-Sep-22 12:04 33.681225 -117.866508 110 49ft 0kts
12-Sep-22 12:06 33.679837 -117.866233 208 49ft 34kts
12-Sep-22 12:06 33.661897 -117.879570 216 1041ft 113kts
12-Sep-22 12:07 33.630846 -117.889040 182 2428ft 122kts
12-Sep-22 12:08 33.596471 -117.887392 158 3820ft 122kts
12-Sep-22 12:09 33.587320 -117.853013 88 5242ft 119kts
12-Sep-22 12:10 33.588648 -117.812797 89 6521ft 120kts
12-Sep-22 12:11 33.589671 -117.772198 89 7763ft 125kts
12-Sep-22 12:12 33.591225 -117.728818 85 9011ft 133kts
12-Sep-22 12:13 33.591962 -117.683868 92 10207ft 132kts
12-Sep-22 12:14 33.594410 -117.637503 84 11287ft 142kts
12-Sep-22 12:15 33.595154 -117.583097 92 11372ft 172kts
12-Sep-22 12:16 33.596870 -117.524435 88 11339ft 180kts
12-Sep-22 12:17 33.598493 -117.463883 89 11291ft 182kts
12-Sep-22 12:18 33.600251 -117.404305 89 11293ft 176kts
12-Sep-22 12:19 33.601927 -117.345246 89 11287ft 176kts
12-Sep-22 12:20 33.603432 -117.286910 89 11294ft 174kts
12-Sep-22 12:21 33.604886 -117.227563 89 11281ft 179kts
12-Sep-22 12:22 33.606390 -117.167450 89 11289ft 180kts
12-Sep-22 12:23 33.607970 -117.108125 89 11323ft 179kts
12-Sep-22 12:24 33.609403 -117.047547 89 11301ft 180kts
12-Sep-22 12:25 33.610931 -116.987433 89 11296ft 181kts
12-Sep-22 12:26 33.612258 -116.929932 89 11281ft 179kts
12-Sep-22 12:27 33.613734 -116.870043 89 11302ft 180kts
12-Sep-22 12:28 33.615059 -116.809707 89 11285ft 179kts
12-Sep-22 12:29 33.616354 -116.750624 89 11293ft 176kts
12-Sep-22 12:30 33.617591 -116.691209 89 11290ft 180kts
12-Sep-22 12:31 33.618988 -116.631901 89 11292ft 175kts
12-Sep-22 12:32 33.643049 -116.583234 42 11295ft 181kts
12-Sep-22 12:33 33.680263 -116.543192 42 10892ft 188kts
12-Sep-22 12:34 33.718402 -116.503432 40 9792ft 177kts
12-Sep-22 12:35 33.755473 -116.464127 42 8681ft 176kts
12-Sep-22 12:36 33.791322 -116.425660 41 7634ft 167kts
12-Sep-22 12:37 33.829047 -116.416823 311 6520ft 157kts
12-Sep-22 12:38 33.858913 -116.453936 301 5342ft 146kts
12-Sep-22 12:39 33.878696 -116.494071 300 3723ft 133kts
12-Sep-22 12:40 33.880811 -116.533975 216 2148ft 125kts
12-Sep-22 12:41 33.850102 -116.525928 141 968ft 115kts
12-Sep-22 12:42 33.831667 -116.509441 143 447ft 52kts
12-Sep-22 12:43 33.826466 -116.506881 147 435ft 11kts
12-Sep-22 12:44 33.825742 -116.508683 270 436ft 0kts
12-Sep-22 12:45 33.825742 -116.508683 270 436ft 0kts
12-Sep-22 12:46 33.825742 -116.508683 270 436ft 0kts
12-Sep-22 12:47 33.825742 -116.508683 270 436ft 0kts
12-Sep-22 12:48 33.825742 -116.508683 270 436ft 0kts
12-Sep-22 12:49 33.825742 -116.508683 270 436ft 0kts
12-Sep-22 12:50 33.825742 -116.508683 270 436ft 0kts
12-Sep-22 12:51 33.825742 -116.508683 270 436ft 0kts
12-Sep-22 12:52 33.825742 -116.508683 270 436ft 0kts
12-Sep-22 12:53 33.825742 -116.508683 270 436ft 0kts
12-Sep-22 12:54 33.825742 -116.508683 270 436ft 0kts
12-Sep-22 12:55 33.825742 -116.508683 270 436ft 0kts
12-Sep-22 12:56 33.825742 -116.508683 270 436ft 0kts
12-Sep-22 12:57 33.825742 -116.508683 270 436ft 0kts
12-Sep-22 12:58 33.825742 -116.508683 270 436ft 0kts

Navigation Log

Ident Type
Flight plan parsing failed, navigation log unavailable